createdAt,value
2023-03-10T01:26:12.449Z,4.58
2023-03-10T01:27:14.867Z,4.51
2023-03-10T01:28:17.325Z,4.74
2023-03-10T01:29:19.769Z,4.53
2023-03-10T01:30:22.236Z,4.60
2023-03-10T01:31:24.779Z,4.10
2023-03-10T01:32:27.401Z,3.59
2023-03-10T01:33:30.029Z,4.63
2023-03-10T01:34:32.551Z,5.05
2023-03-10T01:35:35.067Z,5.23
2023-03-10T01:36:38.010Z,4.85
2023-03-10T01:37:41.088Z,6.06
2023-03-10T01:38:44.637Z,5.12
2023-03-10T01:39:47.146Z,4.05
2023-03-10T01:40:49.893Z,5.54
2023-03-10T01:41:52.379Z,4.83
2023-03-10T01:42:54.729Z,4.25
2023-03-10T01:43:57.245Z,4.72
2023-03-10T01:44:59.675Z,4.92
2023-03-10T01:46:02.140Z,4.61
2023-03-10T01:47:04.607Z,4.95
2023-03-10T01:48:07.163Z,3.63
2023-03-10T01:49:09.717Z,4.95
2023-03-10T01:50:12.781Z,3.56
2023-03-10T01:51:15.358Z,4.87
2023-03-10T01:52:17.952Z,4.81
2023-03-10T01:53:20.517Z,4.55
2023-03-10T01:54:23.085Z,4.67
2023-03-10T01:55:25.631Z,4.18
2023-03-10T01:56:28.206Z,5.12
2023-03-10T01:57:30.828Z,5.05
2023-03-10T01:58:33.385Z,4.31
2023-03-10T01:59:35.842Z,4.77
2023-03-10T02:00:38.394Z,4.36
2023-03-10T02:01:41.029Z,4.22
2023-03-10T02:02:43.820Z,3.97
2023-03-10T02:03:46.306Z,4.90
2023-03-10T02:04:48.896Z,5.35
2023-03-10T02:05:51.370Z,4.08
2023-03-10T02:06:54.238Z,4.27
2023-03-10T02:07:56.739Z,4.58
2023-03-10T02:08:59.323Z,4.25
2023-03-10T02:10:01.828Z,4.43
2023-03-10T02:11:04.457Z,4.46
2023-03-10T02:12:07.029Z,6.11
2023-03-10T02:13:09.678Z,5.33
2023-03-10T02:14:12.247Z,4.29
2023-03-10T02:15:14.804Z,4.95
2023-03-10T02:16:17.427Z,5.19
2023-03-10T02:17:19.989Z,4.46
2023-03-10T02:18:22.614Z,4.31
2023-03-10T02:19:25.146Z,5.78
2023-03-10T02:20:27.977Z,4.46
2023-03-10T02:21:30.464Z,4.51
2023-03-10T02:22:33.028Z,5.17
2023-03-10T02:23:35.615Z,5.00
2023-03-10T02:24:38.209Z,4.71
2023-03-10T02:25:40.744Z,4.55
2023-03-10T02:26:43.809Z,5.03
2023-03-10T02:27:46.364Z,5.26
2023-03-10T02:28:48.983Z,5.22
2023-03-10T02:29:59.332Z,5.81
2023-03-10T02:30:56.058Z,5.88
2023-03-10T02:31:58.654Z,4.99
2023-03-10T02:33:01.306Z,4.67
2023-03-10T02:34:04.054Z,5.83
2023-03-10T02:35:06.602Z,4.74
2023-03-10T02:36:09.713Z,5.16
2023-03-10T02:37:12.307Z,4.55
2023-03-10T02:38:14.862Z,5.69
2023-03-10T02:39:17.461Z,4.63
2023-03-10T02:40:20.323Z,5.78
2023-03-10T02:41:22.894Z,5.19
2023-03-10T02:42:25.455Z,5.44
2023-03-10T02:43:28.036Z,5.97
2023-03-10T02:44:30.686Z,5.71
2023-03-10T02:45:33.477Z,4.35
2023-03-10T02:46:36.336Z,5.92
2023-03-10T02:47:38.890Z,5.55
2023-03-10T02:48:41.443Z,3.33
2023-03-10T02:49:44.047Z,3.96
2023-03-10T02:50:46.738Z,5.41
2023-03-10T02:51:49.300Z,5.96
2023-03-10T02:52:51.839Z,6.63
2023-03-10T02:53:54.292Z,5.02
2023-03-10T02:54:56.921Z,5.91
2023-03-10T02:55:59.430Z,5.61
2023-03-10T02:57:02.083Z,4.96
2023-03-10T02:58:04.653Z,5.69
2023-03-10T02:59:07.410Z,6.01
2023-03-10T03:00:10.163Z,6.11
2023-03-10T03:01:12.755Z,6.39
2023-03-10T03:02:15.430Z,5.73
2023-03-10T03:03:17.918Z,6.44
2023-03-10T03:04:20.606Z,5.91
2023-03-10T03:05:23.465Z,5.97
2023-03-10T03:06:26.223Z,6.24
2023-03-10T03:07:28.807Z,5.59
2023-03-10T03:08:31.459Z,5.80
2023-03-10T03:09:34.029Z,6.12
2023-03-10T03:10:36.843Z,4.42
2023-03-10T03:11:40.130Z,7.08
2023-03-10T03:12:42.725Z,5.88
2023-03-10T03:13:45.271Z,5.81
2023-03-10T03:14:47.729Z,5.26
2023-03-10T03:15:50.354Z,6.34
2023-03-10T03:16:53.189Z,6.13
2023-03-10T03:17:55.783Z,5.89
2023-03-10T03:18:58.342Z,5.55
2023-03-10T03:20:00.912Z,6.30
2023-03-10T03:21:03.512Z,5.37
2023-03-10T03:22:06.112Z,6.27
2023-03-10T03:23:08.667Z,6.78
2023-03-10T03:24:11.147Z,6.63
2023-03-10T03:25:13.790Z,5.82
2023-03-10T03:26:16.585Z,6.53
2023-03-10T03:27:19.134Z,7.71
2023-03-10T03:28:21.622Z,5.73
2023-03-10T03:29:24.176Z,5.98
2023-03-10T03:30:26.734Z,6.41
2023-03-10T03:31:29.631Z,6.97
2023-03-10T03:32:32.219Z,7.59
2023-03-10T03:33:34.932Z,6.58
2023-03-10T03:34:37.477Z,7.10
2023-03-10T03:35:39.987Z,6.91
2023-03-10T03:36:42.662Z,7.01
2023-03-10T03:37:45.204Z,8.17
2023-03-10T03:38:47.778Z,6.07
2023-03-10T03:39:50.410Z,6.29
2023-03-10T03:40:53.317Z,5.92
2023-03-10T03:41:55.909Z,6.27
2023-03-10T03:42:58.478Z,6.74
2023-03-10T03:44:01.102Z,5.77
2023-03-10T03:45:03.689Z,5.61
2023-03-10T03:46:06.394Z,6.69
2023-03-10T03:47:09.186Z,6.06
2023-03-10T03:48:12.011Z,5.66
2023-03-10T03:49:14.847Z,6.25
2023-03-10T03:50:18.222Z,6.04
2023-03-10T03:51:21.099Z,7.36
2023-03-10T03:52:23.679Z,6.29
2023-03-10T03:53:26.235Z,7.05
2023-03-10T03:54:28.790Z,6.26
2023-03-10T03:55:31.429Z,6.87
2023-03-10T03:56:33.978Z,6.45
2023-03-10T03:57:36.561Z,6.45
2023-03-10T03:58:39.126Z,7.25
2023-03-10T03:59:41.715Z,6.30
2023-03-10T04:00:44.331Z,6.13
2023-03-10T04:01:46.851Z,5.97
2023-03-10T04:02:49.571Z,7.29
2023-03-10T04:03:52.459Z,6.27
2023-03-10T04:04:55.250Z,6.78
2023-03-10T04:05:57.913Z,6.63
2023-03-10T04:07:00.696Z,7.35
2023-03-10T04:08:03.296Z,6.45
2023-03-10T04:09:05.871Z,5.41
2023-03-10T04:10:08.642Z,6.44
2023-03-10T04:11:11.218Z,6.53
2023-03-10T04:12:13.812Z,7.44
2023-03-10T04:13:16.598Z,5.78
2023-03-10T04:14:19.094Z,6.79
2023-03-10T04:15:21.672Z,6.65
2023-03-10T04:16:24.400Z,7.09
2023-03-10T04:17:26.922Z,5.36
2023-03-10T04:18:29.563Z,6.66
2023-03-10T04:19:32.166Z,7.03
2023-03-10T04:20:34.926Z,6.56
2023-03-10T04:21:37.728Z,6.30
2023-03-10T04:22:40.298Z,6.97
2023-03-10T04:23:42.913Z,5.73
2023-03-10T04:24:45.500Z,6.71
2023-03-10T04:25:48.077Z,6.72
2023-03-10T04:26:50.660Z,7.20
2023-03-10T04:27:53.266Z,6.95
2023-03-10T04:28:55.883Z,6.12
2023-03-10T04:29:58.454Z,6.28
2023-03-10T04:31:01.193Z,7.03
2023-03-10T04:32:05.856Z,6.89
2023-03-10T04:33:08.209Z,6.72
2023-03-10T04:34:10.997Z,7.40
2023-03-10T04:35:13.578Z,7.03
2023-03-10T04:36:16.974Z,6.32
2023-03-10T04:37:19.911Z,6.71
2023-03-10T04:38:22.518Z,6.82
2023-03-10T04:39:25.137Z,7.13
2023-03-10T04:40:27.733Z,6.39
2023-03-10T04:41:30.528Z,7.12
2023-03-10T04:42:33.160Z,5.75
2023-03-10T04:43:35.772Z,6.73
2023-03-10T04:44:38.409Z,6.79
2023-03-10T04:45:40.994Z,5.75
2023-03-10T04:46:44.036Z,5.18
2023-03-10T04:47:46.893Z,6.11
2023-03-10T05:11:37.043Z,5.52
2023-03-10T05:12:39.632Z,6.17
2023-03-10T05:13:42.228Z,7.06
2023-03-10T05:14:44.861Z,7.98
2023-03-10T05:15:47.515Z,6.90
2023-03-10T05:16:50.385Z,5.76
2023-03-10T05:17:53.033Z,6.76
2023-03-10T05:18:55.560Z,8.13
2023-03-10T05:19:58.165Z,7.44
2023-03-10T05:21:00.951Z,7.83
2023-03-10T05:22:03.611Z,4.72
2023-03-10T05:23:06.691Z,6.49
2023-03-10T05:24:09.443Z,6.29
2023-03-10T05:25:12.087Z,7.66
2023-03-10T05:26:15.262Z,5.31
2023-03-10T05:27:18.288Z,6.06
2023-03-10T05:28:20.867Z,5.42
2023-03-10T05:29:24.519Z,7.61
2023-03-10T05:30:27.522Z,8.22
2023-03-10T05:31:30.232Z,9.78
2023-03-10T05:32:33.156Z,7.47
2023-03-10T05:33:35.767Z,4.95
2023-03-10T05:34:38.348Z,6.69
2023-03-10T05:35:41.067Z,8.01
2023-03-10T05:36:44.239Z,9.06
2023-03-10T05:37:46.838Z,7.31
2023-03-10T05:38:49.413Z,7.93
2023-03-10T05:39:51.988Z,7.35
2023-03-10T05:40:54.569Z,6.87
2023-03-10T05:41:57.142Z,7.65
2023-03-10T05:42:59.767Z,6.83
2023-03-10T05:44:02.460Z,7.79
2023-03-10T05:45:05.046Z,7.31
2023-03-10T05:46:07.975Z,5.91
2023-03-10T05:47:10.548Z,6.73
2023-03-10T05:48:13.160Z,7.13
2023-03-10T05:49:15.844Z,7.19
2023-03-10T05:50:18.459Z,7.11
2023-03-10T05:51:21.034Z,7.18
2023-03-10T05:52:23.663Z,6.05
2023-03-10T05:53:26.253Z,6.47
2023-03-10T05:54:28.870Z,6.25
2023-03-10T05:55:31.456Z,7.73
2023-03-10T05:56:34.048Z,6.80
2023-03-10T05:57:36.610Z,6.55
2023-03-10T05:58:39.299Z,7.49
2023-03-10T05:59:41.910Z,7.58
2023-03-10T06:00:44.572Z,5.39
2023-03-10T06:01:47.169Z,6.70
2023-03-10T06:02:49.802Z,7.11
2023-03-10T06:03:52.632Z,5.62
2023-03-10T06:04:55.472Z,5.42
2023-03-10T06:05:58.086Z,5.75
2023-03-10T06:07:00.749Z,7.01
2023-03-10T06:08:03.256Z,8.11
2023-03-10T06:09:05.942Z,7.91
2023-03-10T06:10:08.906Z,7.56
2023-03-10T06:11:11.710Z,7.71
2023-03-10T06:12:14.294Z,8.09
2023-03-10T06:13:16.897Z,8.02
2023-03-10T06:14:19.557Z,7.13
2023-03-10T06:15:22.366Z,8.50
2023-03-10T06:16:25.397Z,8.83
2023-03-10T06:17:28.144Z,8.51
2023-03-10T06:18:30.760Z,7.60
2023-03-10T06:19:33.439Z,8.17
2023-03-10T06:20:36.052Z,8.67
2023-03-10T06:21:38.606Z,8.75
2023-03-10T06:22:41.187Z,8.79
2023-03-10T06:23:43.763Z,8.13
2023-03-10T06:24:46.452Z,8.51
2023-03-10T06:25:49.033Z,5.87
2023-03-10T06:26:51.826Z,8.42
2023-03-10T06:27:54.463Z,8.15
2023-03-10T06:28:57.054Z,7.86
2023-03-10T06:29:59.665Z,9.92
2023-03-10T06:31:02.469Z,9.44
2023-03-10T06:32:05.128Z,10.24
2023-03-10T06:33:07.859Z,6.79
2023-03-10T06:34:10.523Z,7.14
2023-03-10T06:35:13.132Z,9.09
2023-03-10T06:36:15.922Z,9.94
2023-03-10T06:37:18.532Z,8.96
2023-03-10T06:38:21.112Z,10.65
2023-03-10T06:39:25.474Z,10.41
2023-03-10T06:40:28.200Z,10.29
2023-03-10T06:41:30.854Z,11.53
2023-03-10T06:42:33.425Z,8.11
2023-03-10T06:43:36.012Z,8.96
2023-03-10T06:44:38.613Z,8.07
2023-03-10T06:45:41.454Z,9.27
2023-03-10T06:46:44.310Z,9.81
2023-03-10T06:47:46.941Z,9.29
2023-03-10T06:48:49.654Z,10.90
2023-03-10T06:49:52.191Z,11.59
2023-03-10T06:50:55.112Z,12.31
2023-03-10T06:51:57.688Z,10.68
2023-03-10T06:53:00.279Z,12.45
2023-03-10T06:54:02.847Z,10.13
2023-03-10T06:55:05.431Z,11.51
2023-03-10T06:56:08.480Z,11.67
2023-03-10T06:57:11.046Z,12.04
2023-03-10T06:58:13.628Z,12.34
2023-03-10T06:59:16.215Z,10.68
2023-03-10T07:00:18.804Z,11.23
2023-03-10T07:01:23.185Z,10.89
2023-03-10T07:02:25.984Z,11.30
2023-03-10T07:03:28.578Z,11.04
2023-03-10T07:04:31.205Z,11.54
2023-03-10T07:05:33.744Z,11.60
2023-03-10T07:06:36.387Z,10.87
2023-03-10T07:07:39.006Z,10.99
2023-03-10T07:08:41.565Z,10.13
2023-03-10T07:09:44.141Z,11.40
2023-03-10T07:10:47.030Z,12.06
2023-03-10T07:11:49.640Z,11.07
2023-03-10T07:12:52.270Z,10.95
2023-03-10T07:13:54.929Z,11.35
2023-03-10T07:14:57.530Z,12.07
2023-03-10T07:16:00.128Z,11.78
2023-03-10T07:17:02.842Z,11.44
2023-03-10T07:18:05.499Z,10.53
2023-03-10T07:19:08.436Z,12.59
2023-03-10T07:20:11.418Z,12.16
2023-03-10T07:21:14.013Z,10.40
2023-03-10T07:22:16.622Z,10.43
2023-03-10T07:23:19.180Z,9.38
2023-03-10T07:24:21.754Z,11.87
2023-03-10T07:25:24.440Z,9.81
2023-03-10T07:26:27.116Z,9.34
2023-03-10T07:27:29.775Z,9.95
2023-03-10T07:28:32.349Z,10.69
2023-03-10T07:29:34.945Z,9.46
2023-03-10T07:30:37.790Z,10.50
2023-03-10T07:31:40.492Z,8.76
2023-03-10T07:32:43.159Z,9.33
2023-03-10T07:33:45.700Z,10.14
2023-03-10T07:34:48.284Z,9.45
2023-03-10T07:35:50.917Z,10.97
2023-03-10T12:43:46.452Z,3.61
2023-03-10T12:44:48.890Z,3.54
2023-03-10T12:45:51.338Z,3.30
2023-03-10T12:46:53.908Z,3.45
2023-03-10T12:47:56.602Z,3.81
2023-03-10T12:48:59.104Z,3.28
2023-03-10T12:50:01.570Z,3.07
2023-03-10T12:51:04.027Z,3.27
2023-03-10T12:52:06.472Z,3.51
2023-03-10T12:53:09.063Z,3.64
2023-03-10T12:54:11.502Z,3.61
2023-03-10T12:55:14.053Z,3.45
2023-03-10T12:56:16.703Z,3.29
2023-03-10T12:57:19.168Z,3.34
2023-03-10T12:58:21.608Z,3.34
2023-03-10T12:59:24.110Z,3.43
2023-03-10T13:00:26.624Z,3.47
2023-03-10T13:01:29.128Z,3.07
2023-03-10T13:02:33.662Z,3.45
2023-03-10T13:03:35.886Z,4.17
2023-03-10T13:04:38.454Z,4.11
2023-03-10T13:05:40.902Z,3.56
2023-03-10T13:06:43.460Z,3.53
2023-03-10T13:07:45.921Z,3.49
2023-03-10T13:08:48.396Z,3.41
2023-03-10T13:09:50.934Z,2.93
2023-03-10T13:10:53.463Z,3.58
2023-03-10T13:11:56.212Z,3.33
2023-03-10T13:12:58.678Z,3.39
2023-03-10T13:14:01.120Z,3.92
2023-03-10T13:15:03.661Z,3.65
2023-03-10T13:16:06.540Z,3.21
2023-03-10T13:17:08.973Z,3.63
2023-03-10T13:18:11.485Z,3.33
2023-03-10T13:19:13.953Z,3.37
2023-03-10T13:20:16.620Z,3.51
2023-03-10T13:21:19.089Z,3.61
2023-03-10T13:22:21.528Z,3.85
2023-03-10T13:23:24.007Z,4.12
2023-03-10T13:24:26.447Z,3.80
2023-03-10T13:25:28.868Z,4.04
2023-03-10T13:26:31.384Z,4.46
2023-03-10T13:27:33.876Z,4.53
2023-03-10T13:28:36.365Z,4.75
2023-03-10T13:29:38.875Z,4.52
2023-03-10T13:30:41.380Z,4.24
2023-03-10T13:31:43.926Z,3.97
2023-03-10T13:32:46.393Z,5.09
2023-03-10T13:33:53.227Z,5.46
2023-03-10T13:34:53.177Z,6.08
2023-03-10T13:35:55.783Z,5.15
2023-03-10T13:36:58.424Z,5.76
2023-03-10T13:38:00.782Z,5.49
2023-03-10T13:39:03.231Z,5.40
2023-03-10T13:40:06.126Z,5.37
2023-03-10T13:41:08.628Z,4.16
2023-03-10T13:42:11.082Z,4.79
2023-03-10T13:43:13.553Z,5.01
2023-03-10T13:44:15.947Z,5.55
2023-03-10T13:45:18.532Z,5.54
2023-03-10T13:46:21.241Z,4.79
2023-03-10T13:47:23.912Z,4.89
2023-03-10T13:48:26.397Z,4.64
2023-03-10T13:49:28.923Z,6.58
2023-03-10T13:50:31.277Z,5.29
2023-03-10T13:51:33.779Z,4.19
2023-03-10T13:52:36.285Z,4.36
2023-03-10T13:53:39.007Z,4.45
2023-03-10T13:54:41.458Z,4.53
2023-03-10T13:55:43.910Z,4.29
2023-03-10T13:56:46.296Z,4.62
2023-03-10T13:57:48.777Z,4.87
2023-03-10T13:58:51.293Z,4.80
2023-03-10T13:59:53.769Z,4.23
2023-03-10T14:00:56.349Z,5.35
2023-03-10T14:01:59.108Z,4.63
2023-03-10T14:03:01.870Z,4.37
2023-03-10T14:04:04.371Z,4.37
2023-03-10T14:05:07.080Z,4.22
2023-03-10T14:06:09.795Z,4.00
2023-03-10T14:07:12.289Z,3.70
2023-03-10T14:08:14.868Z,4.05
2023-03-10T14:09:17.344Z,4.50
2023-03-10T14:10:19.876Z,4.17
2023-03-10T14:11:22.585Z,4.31
2023-03-10T14:12:25.048Z,4.64
2023-03-10T14:13:27.514Z,4.66
2023-03-10T14:14:29.971Z,4.72
2023-03-10T14:15:32.325Z,4.77
2023-03-10T14:16:34.892Z,4.63
2023-03-10T14:17:37.379Z,5.51
2023-03-10T14:18:40.023Z,4.56
2023-03-10T14:19:42.483Z,4.56
2023-03-10T14:20:44.937Z,4.22
2023-03-10T14:22:00.251Z,5.46
2023-03-10T14:22:51.713Z,5.99
2023-03-10T14:23:54.174Z,6.49
2023-03-10T14:24:56.629Z,7.61
2023-03-10T14:25:59.078Z,7.80
2023-03-10T14:27:01.948Z,6.18
2023-03-10T14:28:04.481Z,4.99
2023-03-10T14:29:06.948Z,5.74
2023-03-10T14:30:09.969Z,6.03
2023-03-10T14:31:13.035Z,5.48
2023-03-10T14:32:15.619Z,5.38
2023-03-10T14:33:18.065Z,4.83
2023-03-10T14:34:20.563Z,6.61
2023-03-10T14:35:23.053Z,6.04
2023-03-10T14:36:25.617Z,6.13
2023-03-10T14:37:28.049Z,5.71
2023-03-10T14:38:30.518Z,4.96
2023-03-10T14:39:32.970Z,5.33
2023-03-10T14:40:35.636Z,4.81
2023-03-10T14:41:38.129Z,4.21
2023-03-10T14:42:40.756Z,4.83
2023-03-10T14:43:43.251Z,4.93
2023-03-10T14:44:45.704Z,5.19
2023-03-10T14:45:48.432Z,6.10
2023-03-10T14:46:51.326Z,4.79
2023-03-10T14:47:54.297Z,4.99
2023-03-10T14:48:57.193Z,5.37
2023-03-10T14:49:59.639Z,4.77
2023-03-10T14:51:02.091Z,5.46
2023-03-10T14:52:04.546Z,5.12
2023-03-10T14:53:07.017Z,5.54
2023-03-10T14:54:09.517Z,4.91
2023-03-10T14:55:11.984Z,6.17
2023-03-10T14:56:14.835Z,4.85
2023-03-10T14:57:17.291Z,5.83
2023-03-10T14:58:19.787Z,5.73
2023-03-10T14:59:22.249Z,5.39
2023-03-10T15:00:24.710Z,5.17
2023-03-10T15:01:27.214Z,5.59
2023-03-10T15:02:29.937Z,5.70
2023-03-10T15:03:32.595Z,6.09
2023-03-10T15:04:35.183Z,5.53
2023-03-10T15:05:48.309Z,5.89
2023-03-10T15:06:42.528Z,5.73
2023-03-10T15:07:45.354Z,6.41
2023-03-10T15:08:47.877Z,7.61
2023-03-10T15:09:54.583Z,8.67
2023-03-10T15:10:54.797Z,7.83
2023-03-10T15:11:57.409Z,6.90
2023-03-10T15:13:00.037Z,6.45
2023-03-10T15:14:02.592Z,6.64
2023-03-10T15:15:05.190Z,5.59
2023-03-10T15:16:08.328Z,5.97
2023-03-10T15:17:10.994Z,6.59
2023-03-10T15:18:13.617Z,6.29
2023-03-10T15:19:16.110Z,5.81
2023-03-10T15:20:18.867Z,6.67
2023-03-10T15:21:21.561Z,6.11
2023-03-10T15:22:24.090Z,6.25
2023-03-10T15:23:26.701Z,6.71
2023-03-10T15:24:29.348Z,6.22
2023-03-10T15:25:31.930Z,6.47
2023-03-10T15:26:34.808Z,6.91
2023-03-10T15:27:37.354Z,6.29
2023-03-10T15:28:39.911Z,6.12
2023-03-10T15:29:42.395Z,6.63
2023-03-10T15:30:44.997Z,6.81
2023-03-10T15:31:47.639Z,6.44
2023-03-10T15:32:50.557Z,6.98
2023-03-10T15:33:53.160Z,7.19
2023-03-10T15:34:55.711Z,6.43
2023-03-10T15:35:58.306Z,6.71
2023-03-10T15:37:01.172Z,7.13
2023-03-10T15:38:03.688Z,7.19
2023-03-10T15:39:06.308Z,6.71
2023-03-10T15:40:09.226Z,6.76
2023-03-10T15:41:12.109Z,6.60
2023-03-10T15:42:14.691Z,6.59
2023-03-10T15:43:17.285Z,6.65
2023-03-10T15:44:19.869Z,8.62
2023-03-10T15:46:32.231Z,7.41
2023-03-10T15:47:34.996Z,8.74
2023-03-10T15:48:37.613Z,6.85
2023-03-10T15:49:40.156Z,8.68
2023-03-10T15:50:42.776Z,7.74
2023-03-10T15:51:45.539Z,6.68
2023-03-10T15:52:48.255Z,6.58
2023-03-10T15:53:50.895Z,7.17
2023-03-10T15:54:53.436Z,7.07
2023-03-10T15:55:56.319Z,6.86
2023-03-10T15:56:58.927Z,7.47
2023-03-10T15:58:01.680Z,7.56
2023-03-10T15:59:04.287Z,6.83
2023-03-10T16:00:07.418Z,7.07
2023-03-10T16:01:09.978Z,7.64
2023-03-10T16:02:12.587Z,7.23
2023-03-10T16:03:18.095Z,7.43
2023-03-10T16:04:19.817Z,7.65
2023-03-10T16:05:22.490Z,7.37
2023-03-10T16:06:25.405Z,6.81
2023-03-10T16:07:28.032Z,7.56
2023-03-10T16:08:30.645Z,7.19
2023-03-10T16:09:33.137Z,5.80
2023-03-10T16:10:35.730Z,6.27
2023-03-10T16:11:38.296Z,7.03
2023-03-10T16:12:40.889Z,7.21
2023-03-10T16:13:43.432Z,7.61
2023-03-10T16:14:45.987Z,7.03
2023-03-10T16:15:48.586Z,6.40
2023-03-10T16:16:51.253Z,7.35
2023-03-10T16:17:53.822Z,6.91
2023-03-10T16:18:56.379Z,7.85
2023-03-10T16:19:58.945Z,7.36
2023-03-10T16:21:01.479Z,7.38
2023-03-10T16:22:04.271Z,7.36
2023-03-10T16:23:06.909Z,7.39
2023-03-10T16:24:09.470Z,7.66
2023-03-10T16:25:12.036Z,7.48
2023-03-10T16:26:14.914Z,6.09
2023-03-10T16:27:17.481Z,5.81
2023-03-10T16:28:20.060Z,6.50
2023-03-10T16:29:22.613Z,6.44
2023-03-10T16:30:25.204Z,7.40
2023-03-10T16:31:27.929Z,7.47
2023-03-10T16:32:30.553Z,6.36
2023-03-10T16:33:33.314Z,6.21
2023-03-10T16:34:35.983Z,6.93
2023-03-10T16:35:38.648Z,7.58
2023-03-10T16:36:41.248Z,8.05
2023-03-10T16:37:43.760Z,8.44
2023-03-10T16:38:46.344Z,8.01
2023-03-10T16:39:49.026Z,7.41
2023-03-10T16:40:51.606Z,6.76
2023-03-10T16:41:54.155Z,7.74
2023-03-10T16:42:56.741Z,7.31
2023-03-10T16:43:59.313Z,7.57
2023-03-10T16:45:01.869Z,7.87
2023-03-10T16:46:04.704Z,6.91
2023-03-10T16:47:07.407Z,7.19
2023-03-10T16:48:09.987Z,7.21
2023-03-10T16:49:12.611Z,7.39
2023-03-10T16:50:15.369Z,7.21
2023-03-10T16:51:18.012Z,7.29
2023-03-10T16:52:20.565Z,6.78
2023-03-10T16:53:23.384Z,6.95
2023-03-10T16:54:26.005Z,6.46
2023-03-10T16:55:28.564Z,7.27
2023-03-10T16:56:31.125Z,6.82
2023-03-10T16:57:33.936Z,6.79
2023-03-10T16:58:36.625Z,7.55
2023-03-10T16:59:39.204Z,7.61
2023-03-10T17:00:41.782Z,7.07
2023-03-10T17:01:44.409Z,7.59
2023-03-10T17:02:47.068Z,7.89
2023-03-10T17:03:49.657Z,7.07
2023-03-10T17:04:52.237Z,7.02
2023-03-10T17:05:54.790Z,7.31
2023-03-10T17:06:57.248Z,7.08
2023-03-10T17:07:59.809Z,6.87
2023-03-10T17:09:02.387Z,6.81
2023-03-10T17:10:04.904Z,6.83
2023-03-10T17:11:07.780Z,6.37
2023-03-10T17:12:10.429Z,6.91
2023-03-10T17:13:13.021Z,6.48
2023-03-10T17:14:15.613Z,7.15
2023-03-10T17:15:18.286Z,6.86
2023-03-10T17:16:21.217Z,7.11
2023-03-10T17:17:23.912Z,7.67
2023-03-10T17:18:26.474Z,6.50
2023-03-10T17:19:29.069Z,6.89
2023-03-10T17:20:31.684Z,7.69
2023-03-10T17:21:34.208Z,7.70
2023-03-10T17:22:37.940Z,6.86
2023-03-10T17:23:41.129Z,6.59
2023-03-10T17:24:43.704Z,6.81
2023-03-10T17:25:46.347Z,6.69
2023-03-10T17:26:49.074Z,7.10
2023-03-10T17:27:51.722Z,6.63
2023-03-10T17:28:54.300Z,6.91
2023-03-10T17:29:56.871Z,7.11
2023-03-10T17:30:59.807Z,6.00
2023-03-10T17:32:02.423Z,6.67
2023-03-10T17:33:05.136Z,6.86
2023-03-10T17:34:07.645Z,6.49
2023-03-10T17:35:10.426Z,6.48
2023-03-10T17:36:13.117Z,6.66
2023-03-10T17:37:15.729Z,6.55
2023-03-10T17:38:18.225Z,6.01
2023-03-10T17:39:20.784Z,6.51
2023-03-10T17:40:23.337Z,6.32
2023-03-10T17:41:25.861Z,7.53
2023-03-10T17:42:28.513Z,7.93
2023-03-10T17:43:34.275Z,8.29
2023-03-10T17:44:35.455Z,8.86
2023-03-10T17:45:38.025Z,9.25
2023-03-10T17:46:40.781Z,8.93
2023-03-10T17:47:43.435Z,8.32
2023-03-10T17:48:45.992Z,8.40
2023-03-10T17:49:48.836Z,8.25
2023-03-10T17:50:51.404Z,8.26
2023-03-10T17:51:54.172Z,9.33
2023-03-10T17:52:56.724Z,8.51
2023-03-10T17:53:59.385Z,8.79
2023-03-10T17:55:02.051Z,7.74
2023-03-10T17:56:04.635Z,8.84
2023-03-10T17:57:07.462Z,8.61
2023-03-10T17:58:10.131Z,8.61
2023-03-10T17:59:12.676Z,9.39
2023-03-10T18:00:15.470Z,8.82
2023-03-10T18:01:18.033Z,9.56
2023-03-10T18:02:20.683Z,9.74
2023-03-10T18:03:23.459Z,9.55
2023-03-10T18:04:26.082Z,9.36
2023-03-10T18:05:28.698Z,8.59
2023-03-10T18:06:31.670Z,8.99
2023-03-10T18:07:34.267Z,9.34
2023-03-10T18:08:36.881Z,9.42
2023-03-10T18:09:39.438Z,10.39
2023-03-10T18:10:42.002Z,10.29
2023-03-10T18:11:44.557Z,9.91
2023-03-10T18:12:47.156Z,9.50
2023-03-10T18:13:49.729Z,10.07
2023-03-10T18:14:52.287Z,9.41
2023-03-10T18:15:54.903Z,11.01
2023-03-10T18:16:57.506Z,10.54
2023-03-10T18:18:00.133Z,9.81
2023-03-10T18:19:03.008Z,10.46
2023-03-10T18:20:05.841Z,10.38
2023-03-10T18:21:08.396Z,11.13
2023-03-10T18:22:11.013Z,11.15
2023-03-10T18:23:13.613Z,11.05
2023-03-10T18:24:16.175Z,11.09
2023-03-10T18:25:18.740Z,10.76
2023-03-10T18:26:21.557Z,11.03
2023-03-10T18:27:24.117Z,10.81
2023-03-10T18:28:26.706Z,10.05
2023-03-10T18:29:29.279Z,9.52
2023-03-10T18:30:31.937Z,9.67
2023-03-10T18:31:34.515Z,9.77
2023-03-10T18:32:37.085Z,9.34
2023-03-10T18:33:39.678Z,9.44
2023-03-10T18:34:42.478Z,8.98
2023-03-10T18:35:45.068Z,10.15
2023-03-10T18:36:47.688Z,9.16
2023-03-10T18:37:50.286Z,9.85
2023-03-10T18:38:52.896Z,9.09
2023-03-10T18:39:55.470Z,9.35
2023-03-10T18:40:58.024Z,8.90
2023-03-10T18:42:00.577Z,9.39
2023-03-10T18:43:03.148Z,9.56
2023-03-10T18:44:05.775Z,9.39
2023-03-10T18:45:08.324Z,9.77
2023-03-10T18:46:11.010Z,9.20
2023-03-10T18:47:13.617Z,10.14
2023-03-10T18:48:16.110Z,9.59
2023-03-10T18:49:18.608Z,9.96
2023-03-10T18:50:21.184Z,11.17
2023-03-10T18:51:23.788Z,10.92
2023-03-10T18:52:26.341Z,10.00
2023-03-10T18:53:28.886Z,9.14
2023-03-10T18:54:31.542Z,10.61
2023-03-10T18:55:34.066Z,10.07
2023-03-10T18:56:36.658Z,9.92
2023-03-10T18:57:39.231Z,9.99
2023-03-10T18:58:41.857Z,10.43
2023-03-10T18:59:44.677Z,9.68
2023-03-10T19:00:47.452Z,9.51
2023-03-10T19:01:50.067Z,9.79
2023-03-10T19:02:52.682Z,9.97
2023-03-10T19:03:55.490Z,10.25
2023-03-10T19:04:58.134Z,10.27
2023-03-10T19:06:00.759Z,9.71
2023-03-10T19:07:03.313Z,10.63
2023-03-10T19:08:05.925Z,10.00
2023-03-10T19:09:08.506Z,10.51
2023-03-10T19:10:11.503Z,10.26
2023-03-10T19:11:14.130Z,10.17
2023-03-10T19:12:16.849Z,10.61
2023-03-10T19:13:19.495Z,12.32
2023-03-10T19:14:22.318Z,11.25
2023-03-10T19:15:24.956Z,10.49
2023-03-10T19:16:27.578Z,11.81
2023-03-10T19:17:30.177Z,11.65
2023-03-10T19:18:32.732Z,10.73
2023-03-10T19:19:35.292Z,11.82
2023-03-10T19:20:38.179Z,11.71
2023-03-10T19:21:40.810Z,10.65
2023-03-10T19:22:43.415Z,10.61
2023-03-10T19:23:45.953Z,10.23
2023-03-10T19:24:48.581Z,10.86
2023-03-10T19:25:51.175Z,11.40
2023-03-10T19:26:53.864Z,9.47
2023-03-10T19:27:56.424Z,10.25
2023-03-10T19:28:59.043Z,10.86
2023-03-10T19:30:01.605Z,10.51
2023-03-10T19:31:04.224Z,10.75
2023-03-10T19:32:06.845Z,10.49
2023-03-10T19:33:09.472Z,10.82
2023-03-10T19:34:12.309Z,10.59
2023-03-10T19:35:14.845Z,10.51
2023-03-10T19:36:17.981Z,10.22
2023-03-10T19:37:20.799Z,9.82
2023-03-10T19:38:23.408Z,10.59
2023-03-10T19:39:26.012Z,11.05
2023-03-10T19:40:28.579Z,10.10
2023-03-10T19:41:31.232Z,10.10
2023-03-10T19:42:33.904Z,10.21
2023-03-10T19:43:36.434Z,10.34
2023-03-10T19:44:40.230Z,9.74
2023-03-10T19:45:42.935Z,9.64
2023-03-10T19:46:45.565Z,9.76
2023-03-10T19:47:48.110Z,10.74
2023-03-10T19:48:50.739Z,10.81
2023-03-10T19:49:53.590Z,10.95
2023-03-10T19:50:56.188Z,9.99
2023-03-10T19:51:58.798Z,10.11
2023-03-10T19:53:01.386Z,10.93
2023-03-10T19:54:03.956Z,10.63
2023-03-10T19:55:06.632Z,9.36
2023-03-10T19:56:09.294Z,9.84
2023-03-10T19:57:11.994Z,10.52
2023-03-10T19:58:14.556Z,10.88
2023-03-10T19:59:17.139Z,9.87
2023-03-10T20:00:19.934Z,10.53
2023-03-10T20:01:23.334Z,10.49
2023-03-10T20:02:26.343Z,10.28
2023-03-10T20:03:28.933Z,10.13
2023-03-10T20:04:31.524Z,10.16
2023-03-10T20:05:34.117Z,10.53
2023-03-10T20:06:36.907Z,10.10
2023-03-10T20:07:39.480Z,10.34
2023-03-10T20:08:42.068Z,10.11
2023-03-10T20:09:44.651Z,10.45
2023-03-10T20:10:47.284Z,10.68
2023-03-10T20:11:49.817Z,10.39
2023-03-10T20:12:52.637Z,9.81
2023-03-10T20:13:55.322Z,10.71
2023-03-10T20:14:58.249Z,10.61
2023-03-10T20:16:00.790Z,9.75
2023-03-10T20:17:03.355Z,10.70
2023-03-10T20:18:05.892Z,10.59
2023-03-10T20:19:08.459Z,10.59
2023-03-10T20:20:11.217Z,11.17
2023-03-10T20:21:13.843Z,9.77
2023-03-10T20:22:16.551Z,10.51
2023-03-10T20:23:19.146Z,9.57
2023-03-10T20:24:21.763Z,9.95
2023-03-10T20:25:24.485Z,10.62
2023-03-10T20:26:27.154Z,10.66
2023-03-10T20:27:29.979Z,9.81
2023-03-10T20:28:32.565Z,9.71
2023-03-10T20:29:35.375Z,10.89
2023-03-10T20:30:38.210Z,10.77
2023-03-10T20:31:40.843Z,10.53
2023-03-10T20:32:44.774Z,10.19
2023-03-10T20:33:47.577Z,9.63
2023-03-10T20:34:50.132Z,10.65
2023-03-10T20:35:52.781Z,10.65
2023-03-10T20:36:55.845Z,11.11
2023-03-10T20:37:58.402Z,12.03
2023-03-10T20:39:01.007Z,11.40
2023-03-10T20:40:03.794Z,12.09
2023-03-10T20:41:06.255Z,13.20
2023-03-10T20:42:08.813Z,11.34
2023-03-10T20:43:11.389Z,10.51
2023-03-10T20:44:13.970Z,10.67
2023-03-10T20:45:16.526Z,11.37